sensor_id;sensor_type;location;lat;lon;timestamp;P1;durP1;ratioP1;P2;durP2;ratioP2
11771;SDS011;12556;55.748;13.194;2022-12-20T00:01:40;21.80;;;14.03;;
11771;SDS011;12556;55.748;13.194;2022-12-20T00:04:08;31.87;;;15.50;;
11771;SDS011;12556;55.748;13.194;2022-12-20T00:06:37;36.47;;;18.00;;
11771;SDS011;12556;55.748;13.194;2022-12-20T00:09:07;31.77;;;15.30;;
11771;SDS011;12556;55.748;13.194;2022-12-20T00:11:37;34.37;;;16.77;;
11771;SDS011;12556;55.748;13.194;2022-12-20T00:14:05;43.70;;;17.90;;
11771;SDS011;12556;55.748;13.194;2022-12-20T00:16:32;41.53;;;17.47;;
11771;SDS011;12556;55.748;13.194;2022-12-20T00:19:02;73.67;;;21.57;;
11771;SDS011;12556;55.748;13.194;2022-12-20T00:21:30;63.67;;;21.57;;
11771;SDS011;12556;55.748;13.194;2022-12-20T00:23:58;89.80;;;24.47;;
11771;SDS011;12556;55.748;13.194;2022-12-20T00:26:27;92.97;;;25.50;;
11771;SDS011;12556;55.748;13.194;2022-12-20T00:28:56;59.90;;;22.83;;
11771;SDS011;12556;55.748;13.194;2022-12-20T00:31:24;36.67;;;17.60;;
11771;SDS011;12556;55.748;13.194;2022-12-20T00:33:52;26.93;;;15.77;;
11771;SDS011;12556;55.748;13.194;2022-12-20T00:36:21;33.27;;;17.10;;
11771;SDS011;12556;55.748;13.194;2022-12-20T00:38:49;34.53;;;17.60;;
11771;SDS011;12556;55.748;13.194;2022-12-20T00:41:18;37.60;;;17.97;;
11771;SDS011;12556;55.748;13.194;2022-12-20T00:43:48;53.33;;;20.37;;
11771;SDS011;12556;55.748;13.194;2022-12-20T00:46:16;35.20;;;19.00;;
11771;SDS011;12556;55.748;13.194;2022-12-20T00:48:44;43.33;;;21.73;;
11771;SDS011;12556;55.748;13.194;2022-12-20T00:51:13;43.70;;;21.77;;
11771;SDS011;12556;55.748;13.194;2022-12-20T00:53:41;48.40;;;21.37;;
11771;SDS011;12556;55.748;13.194;2022-12-20T00:56:08;41.37;;;21.37;;
11771;SDS011;12556;55.748;13.194;2022-12-20T00:58:36;40.77;;;21.30;;
11771;SDS011;12556;55.748;13.194;2022-12-20T01:01:13;54.53;;;22.60;;
11771;SDS011;12556;55.748;13.194;2022-12-20T01:03:42;51.43;;;23.87;;
11771;SDS011;12556;55.748;13.194;2022-12-20T01:06:09;58.00;;;23.90;;
11771;SDS011;12556;55.748;13.194;2022-12-20T01:08:36;56.10;;;25.43;;
11771;SDS011;12556;55.748;13.194;2022-12-20T01:11:04;44.93;;;23.60;;
11771;SDS011;12556;55.748;13.194;2022-12-20T01:13:32;43.27;;;21.77;;
11771;SDS011;12556;55.748;13.194;2022-12-20T01:16:02;49.60;;;23.73;;
11771;SDS011;12556;55.748;13.194;2022-12-20T01:18:32;55.77;;;24.97;;
11771;SDS011;12556;55.748;13.194;2022-12-20T01:20:59;51.10;;;22.73;;
11771;SDS011;12556;55.748;13.194;2022-12-20T01:23:27;39.13;;;22.70;;
11771;SDS011;12556;55.748;13.194;2022-12-20T01:25:56;42.50;;;23.73;;
11771;SDS011;12556;55.748;13.194;2022-12-20T01:28:23;48.30;;;22.93;;
11771;SDS011;12556;55.748;13.194;2022-12-20T01:30:50;49.27;;;24.43;;
11771;SDS011;12556;55.748;13.194;2022-12-20T01:33:17;43.63;;;23.67;;
11771;SDS011;12556;55.748;13.194;2022-12-20T01:35:54;44.23;;;24.03;;
11771;SDS011;12556;55.748;13.194;2022-12-20T01:38:22;34.43;;;22.27;;
11771;SDS011;12556;55.748;13.194;2022-12-20T01:40:49;37.63;;;22.93;;
11771;SDS011;12556;55.748;13.194;2022-12-20T01:43:18;36.20;;;21.00;;
11771;SDS011;12556;55.748;13.194;2022-12-20T01:45:46;32.93;;;21.37;;
11771;SDS011;12556;55.748;13.194;2022-12-20T01:48:13;34.47;;;22.03;;
11771;SDS011;12556;55.748;13.194;2022-12-20T01:50:43;34.90;;;21.10;;
11771;SDS011;12556;55.748;13.194;2022-12-20T01:53:12;35.67;;;21.23;;
11771;SDS011;12556;55.748;13.194;2022-12-20T01:55:39;40.87;;;20.37;;
11771;SDS011;12556;55.748;13.194;2022-12-20T01:58:07;37.07;;;21.03;;
11771;SDS011;12556;55.748;13.194;2022-12-20T02:00:37;34.13;;;20.93;;
11771;SDS011;12556;55.748;13.194;2022-12-20T02:03:05;33.97;;;20.87;;
11771;SDS011;12556;55.748;13.194;2022-12-20T02:05:35;33.00;;;20.97;;
11771;SDS011;12556;55.748;13.194;2022-12-20T02:08:02;35.43;;;20.50;;
11771;SDS011;12556;55.748;13.194;2022-12-20T02:10:34;30.73;;;20.40;;
11771;SDS011;12556;55.748;13.194;2022-12-20T02:13:14;32.57;;;19.83;;
11771;SDS011;12556;55.748;13.194;2022-12-20T02:15:51;30.40;;;20.23;;
11771;SDS011;12556;55.748;13.194;2022-12-20T02:18:21;29.93;;;18.60;;
11771;SDS011;12556;55.748;13.194;2022-12-20T02:20:55;32.73;;;19.30;;
11771;SDS011;12556;55.748;13.194;2022-12-20T02:23:50;33.90;;;20.50;;
11771;SDS011;12556;55.748;13.194;2022-12-20T02:29:38;31.83;;;18.93;;
11771;SDS011;12556;55.748;13.194;2022-12-20T02:32:13;31.43;;;18.70;;
11771;SDS011;12556;55.748;13.194;2022-12-20T02:34:46;32.33;;;20.57;;
11771;SDS011;12556;55.748;13.194;2022-12-20T02:37:13;29.23;;;18.93;;
11771;SDS011;12556;55.748;13.194;2022-12-20T02:39:40;29.47;;;19.43;;
11771;SDS011;12556;55.748;13.194;2022-12-20T02:42:10;29.03;;;17.83;;
11771;SDS011;12556;55.748;13.194;2022-12-20T02:44:40;29.17;;;18.53;;
11771;SDS011;12556;55.748;13.194;2022-12-20T02:47:29;31.07;;;18.03;;
11771;SDS011;12556;55.748;13.194;2022-12-20T02:50:02;24.10;;;16.73;;
11771;SDS011;12556;55.748;13.194;2022-12-20T02:52:31;25.30;;;17.33;;
11771;SDS011;12556;55.748;13.194;2022-12-20T02:54:59;23.53;;;15.37;;
11771;SDS011;12556;55.748;13.194;2022-12-20T02:57:28;28.30;;;16.80;;
11771;SDS011;12556;55.748;13.194;2022-12-20T03:00:04;27.17;;;17.47;;
11771;SDS011;12556;55.748;13.194;2022-12-20T03:02:35;29.13;;;17.57;;
11771;SDS011;12556;55.748;13.194;2022-12-20T03:05:16;27.77;;;17.47;;
11771;SDS011;12556;55.748;13.194;2022-12-20T03:07:47;24.17;;;16.73;;
11771;SDS011;12556;55.748;13.194;2022-12-20T03:10:14;25.23;;;16.43;;
11771;SDS011;12556;55.748;13.194;2022-12-20T03:12:42;25.40;;;16.80;;
11771;SDS011;12556;55.748;13.194;2022-12-20T03:15:09;22.53;;;15.43;;
11771;SDS011;12556;55.748;13.194;2022-12-20T03:17:37;25.07;;;16.40;;
11771;SDS011;12556;55.748;13.194;2022-12-20T03:20:04;26.93;;;17.03;;
11771;SDS011;12556;55.748;13.194;2022-12-20T03:22:33;24.07;;;16.13;;
11771;SDS011;12556;55.748;13.194;2022-12-20T03:25:00;27.33;;;16.20;;
11771;SDS011;12556;55.748;13.194;2022-12-20T03:27:27;21.70;;;15.43;;
11771;SDS011;12556;55.748;13.194;2022-12-20T03:29:54;23.30;;;16.80;;
11771;SDS011;12556;55.748;13.194;2022-12-20T03:32:21;22.87;;;16.10;;
11771;SDS011;12556;55.748;13.194;2022-12-20T03:34:49;24.00;;;15.17;;
11771;SDS011;12556;55.748;13.194;2022-12-20T03:37:16;24.33;;;16.17;;
11771;SDS011;12556;55.748;13.194;2022-12-20T03:39:43;22.37;;;16.17;;
11771;SDS011;12556;55.748;13.194;2022-12-20T03:42:10;24.23;;;15.67;;
11771;SDS011;12556;55.748;13.194;2022-12-20T03:44:36;21.07;;;14.43;;
11771;SDS011;12556;55.748;13.194;2022-12-20T03:47:03;24.77;;;14.80;;
11771;SDS011;12556;55.748;13.194;2022-12-20T03:49:30;21.93;;;14.97;;
11771;SDS011;12556;55.748;13.194;2022-12-20T03:51:58;20.40;;;14.87;;
11771;SDS011;12556;55.748;13.194;2022-12-20T03:54:25;20.50;;;14.53;;
11771;SDS011;12556;55.748;13.194;2022-12-20T03:56:52;21.70;;;15.03;;
11771;SDS011;12556;55.748;13.194;2022-12-20T03:59:19;22.60;;;14.27;;
11771;SDS011;12556;55.748;13.194;2022-12-20T04:01:46;23.93;;;15.07;;
11771;SDS011;12556;55.748;13.194;2022-12-20T04:04:13;23.97;;;15.33;;
11771;SDS011;12556;55.748;13.194;2022-12-20T04:06:41;21.40;;;15.47;;
11771;SDS011;12556;55.748;13.194;2022-12-20T04:09:09;24.03;;;15.67;;
11771;SDS011;12556;55.748;13.194;2022-12-20T04:11:36;23.93;;;15.73;;
11771;SDS011;12556;55.748;13.194;2022-12-20T04:14:03;25.07;;;16.47;;
11771;SDS011;12556;55.748;13.194;2022-12-20T04:16:31;25.70;;;17.53;;
11771;SDS011;12556;55.748;13.194;2022-12-20T04:18:59;22.03;;;15.13;;
11771;SDS011;12556;55.748;13.194;2022-12-20T04:21:27;27.40;;;17.33;;
11771;SDS011;12556;55.748;13.194;2022-12-20T04:23:56;26.17;;;17.70;;
11771;SDS011;12556;55.748;13.194;2022-12-20T04:26:25;28.83;;;18.97;;
11771;SDS011;12556;55.748;13.194;2022-12-20T04:28:52;34.70;;;19.67;;
11771;SDS011;12556;55.748;13.194;2022-12-20T04:31:19;30.63;;;18.87;;
11771;SDS011;12556;55.748;13.194;2022-12-20T04:33:46;36.13;;;19.60;;
11771;SDS011;12556;55.748;13.194;2022-12-20T04:36:13;30.77;;;19.03;;
11771;SDS011;12556;55.748;13.194;2022-12-20T04:38:40;36.87;;;19.33;;
11771;SDS011;12556;55.748;13.194;2022-12-20T04:41:07;31.93;;;19.33;;
11771;SDS011;12556;55.748;13.194;2022-12-20T04:43:36;36.50;;;20.07;;
11771;SDS011;12556;55.748;13.194;2022-12-20T04:46:03;31.73;;;20.93;;
11771;SDS011;12556;55.748;13.194;2022-12-20T04:48:30;36.40;;;20.77;;
11771;SDS011;12556;55.748;13.194;2022-12-20T04:50:56;32.70;;;20.73;;
11771;SDS011;12556;55.748;13.194;2022-12-20T04:53:23;31.63;;;20.47;;
11771;SDS011;12556;55.748;13.194;2022-12-20T04:56:07;32.90;;;20.33;;
11771;SDS011;12556;55.748;13.194;2022-12-20T04:58:36;37.40;;;20.87;;
11771;SDS011;12556;55.748;13.194;2022-12-20T05:01:02;37.57;;;19.87;;
11771;SDS011;12556;55.748;13.194;2022-12-20T05:03:29;30.87;;;18.37;;
11771;SDS011;12556;55.748;13.194;2022-12-20T05:05:56;34.73;;;20.73;;
11771;SDS011;12556;55.748;13.194;2022-12-20T05:08:23;29.27;;;19.53;;
11771;SDS011;12556;55.748;13.194;2022-12-20T05:10:50;29.17;;;19.33;;
11771;SDS011;12556;55.748;13.194;2022-12-20T05:13:17;30.97;;;19.17;;
11771;SDS011;12556;55.748;13.194;2022-12-20T05:15:45;28.77;;;19.50;;
11771;SDS011;12556;55.748;13.194;2022-12-20T05:18:17;37.50;;;20.67;;
11771;SDS011;12556;55.748;13.194;2022-12-20T05:20:44;30.90;;;20.40;;
11771;SDS011;12556;55.748;13.194;2022-12-20T05:23:11;31.80;;;19.50;;
11771;SDS011;12556;55.748;13.194;2022-12-20T05:25:56;29.83;;;19.20;;
11771;SDS011;12556;55.748;13.194;2022-12-20T05:28:41;32.90;;;19.20;;
11771;SDS011;12556;55.748;13.194;2022-12-20T05:31:10;34.27;;;19.03;;
11771;SDS011;12556;55.748;13.194;2022-12-20T05:33:36;31.67;;;19.37;;
11771;SDS011;12556;55.748;13.194;2022-12-20T05:36:04;31.67;;;18.63;;
11771;SDS011;12556;55.748;13.194;2022-12-20T05:38:31;33.67;;;20.07;;
11771;SDS011;12556;55.748;13.194;2022-12-20T05:40:58;33.07;;;19.03;;
11771;SDS011;12556;55.748;13.194;2022-12-20T05:43:24;31.37;;;19.80;;
11771;SDS011;12556;55.748;13.194;2022-12-20T05:45:52;33.93;;;18.33;;
11771;SDS011;12556;55.748;13.194;2022-12-20T05:48:20;35.13;;;20.10;;
11771;SDS011;12556;55.748;13.194;2022-12-20T05:50:47;36.07;;;19.43;;
11771;SDS011;12556;55.748;13.194;2022-12-20T05:53:14;32.60;;;18.47;;
11771;SDS011;12556;55.748;13.194;2022-12-20T05:55:42;34.87;;;20.23;;
11771;SDS011;12556;55.748;13.194;2022-12-20T05:58:10;34.10;;;19.53;;
11771;SDS011;12556;55.748;13.194;2022-12-20T06:00:38;33.23;;;19.47;;
11771;SDS011;12556;55.748;13.194;2022-12-20T06:03:05;33.87;;;18.63;;
11771;SDS011;12556;55.748;13.194;2022-12-20T06:05:34;30.27;;;18.10;;
11771;SDS011;12556;55.748;13.194;2022-12-20T06:08:02;38.00;;;19.40;;
11771;SDS011;12556;55.748;13.194;2022-12-20T06:10:29;33.67;;;17.67;;
11771;SDS011;12556;55.748;13.194;2022-12-20T06:12:56;35.33;;;19.20;;
11771;SDS011;12556;55.748;13.194;2022-12-20T06:15:23;33.63;;;20.27;;
11771;SDS011;12556;55.748;13.194;2022-12-20T06:17:50;32.47;;;19.23;;
11771;SDS011;12556;55.748;13.194;2022-12-20T06:20:17;32.13;;;19.17;;
11771;SDS011;12556;55.748;13.194;2022-12-20T06:22:46;30.77;;;18.83;;
11771;SDS011;12556;55.748;13.194;2022-12-20T06:25:13;27.97;;;18.90;;
11771;SDS011;12556;55.748;13.194;2022-12-20T06:27:40;32.60;;;17.03;;
11771;SDS011;12556;55.748;13.194;2022-12-20T06:30:09;36.10;;;20.03;;
11771;SDS011;12556;55.748;13.194;2022-12-20T06:32:36;39.00;;;20.13;;
11771;SDS011;12556;55.748;13.194;2022-12-20T06:35:04;44.00;;;19.17;;
11771;SDS011;12556;55.748;13.194;2022-12-20T06:37:31;34.47;;;20.13;;
11771;SDS011;12556;55.748;13.194;2022-12-20T06:39:59;31.93;;;18.20;;
11771;SDS011;12556;55.748;13.194;2022-12-20T06:42:27;38.33;;;20.10;;
11771;SDS011;12556;55.748;13.194;2022-12-20T06:44:54;36.03;;;19.47;;
11771;SDS011;12556;55.748;13.194;2022-12-20T06:47:21;42.20;;;20.57;;
11771;SDS011;12556;55.748;13.194;2022-12-20T06:49:48;33.63;;;20.13;;
11771;SDS011;12556;55.748;13.194;2022-12-20T06:52:15;36.20;;;19.57;;
11771;SDS011;12556;55.748;13.194;2022-12-20T06:54:42;29.27;;;19.53;;
11771;SDS011;12556;55.748;13.194;2022-12-20T06:57:10;32.23;;;18.83;;
11771;SDS011;12556;55.748;13.194;2022-12-20T06:59:37;33.67;;;20.57;;
11771;SDS011;12556;55.748;13.194;2022-12-20T07:02:03;37.07;;;21.50;;
11771;SDS011;12556;55.748;13.194;2022-12-20T07:04:30;32.80;;;19.67;;
11771;SDS011;12556;55.748;13.194;2022-12-20T07:06:57;35.87;;;19.17;;
11771;SDS011;12556;55.748;13.194;2022-12-20T07:09:24;27.93;;;19.30;;
11771;SDS011;12556;55.748;13.194;2022-12-20T07:11:51;35.27;;;19.87;;
11771;SDS011;12556;55.748;13.194;2022-12-20T07:14:19;27.50;;;17.10;;
11771;SDS011;12556;55.748;13.194;2022-12-20T07:16:46;26.70;;;16.90;;
11771;SDS011;12556;55.748;13.194;2022-12-20T07:19:14;24.77;;;16.33;;
11771;SDS011;12556;55.748;13.194;2022-12-20T07:21:41;28.17;;;17.60;;
11771;SDS011;12556;55.748;13.194;2022-12-20T07:24:08;31.40;;;18.43;;
11771;SDS011;12556;55.748;13.194;2022-12-20T07:26:35;25.63;;;17.03;;
11771;SDS011;12556;55.748;13.194;2022-12-20T07:29:02;30.00;;;18.17;;
11771;SDS011;12556;55.748;13.194;2022-12-20T07:31:30;31.50;;;17.77;;
11771;SDS011;12556;55.748;13.194;2022-12-20T07:33:57;28.10;;;17.67;;
11771;SDS011;12556;55.748;13.194;2022-12-20T07:36:24;33.83;;;18.37;;
11771;SDS011;12556;55.748;13.194;2022-12-20T07:38:51;25.93;;;17.37;;
11771;SDS011;12556;55.748;13.194;2022-12-20T07:41:18;27.03;;;17.83;;
11771;SDS011;12556;55.748;13.194;2022-12-20T07:43:45;25.50;;;15.90;;
11771;SDS011;12556;55.748;13.194;2022-12-20T07:46:13;27.53;;;17.33;;
11771;SDS011;12556;55.748;13.194;2022-12-20T07:48:42;25.30;;;16.80;;
11771;SDS011;12556;55.748;13.194;2022-12-20T07:51:09;25.77;;;18.03;;
11771;SDS011;12556;55.748;13.194;2022-12-20T07:53:41;31.07;;;18.20;;
11771;SDS011;12556;55.748;13.194;2022-12-20T07:56:10;30.13;;;17.47;;
11771;SDS011;12556;55.748;13.194;2022-12-20T07:58:38;24.63;;;17.77;;
11771;SDS011;12556;55.748;13.194;2022-12-20T08:01:08;27.53;;;17.13;;
11771;SDS011;12556;55.748;13.194;2022-12-20T08:03:37;25.20;;;17.60;;
11771;SDS011;12556;55.748;13.194;2022-12-20T08:06:09;25.77;;;16.80;;
11771;SDS011;12556;55.748;13.194;2022-12-20T08:08:38;20.47;;;15.40;;
11771;SDS011;12556;55.748;13.194;2022-12-20T08:11:10;26.27;;;16.60;;
11771;SDS011;12556;55.748;13.194;2022-12-20T08:13:37;21.97;;;14.60;;
11771;SDS011;12556;55.748;13.194;2022-12-20T08:16:05;19.00;;;14.20;;
11771;SDS011;12556;55.748;13.194;2022-12-20T08:18:32;18.33;;;13.33;;
11771;SDS011;12556;55.748;13.194;2022-12-20T08:20:59;15.50;;;11.27;;
11771;SDS011;12556;55.748;13.194;2022-12-20T08:23:27;13.27;;;10.93;;
11771;SDS011;12556;55.748;13.194;2022-12-20T08:25:54;16.90;;;11.97;;
11771;SDS011;12556;55.748;13.194;2022-12-20T08:28:23;13.53;;;11.17;;
11771;SDS011;12556;55.748;13.194;2022-12-20T08:30:50;11.80;;;9.97;;
11771;SDS011;12556;55.748;13.194;2022-12-20T08:33:17;14.83;;;10.77;;
11771;SDS011;12556;55.748;13.194;2022-12-20T08:35:44;12.93;;;9.63;;
11771;SDS011;12556;55.748;13.194;2022-12-20T08:38:10;11.47;;;10.07;;
11771;SDS011;12556;55.748;13.194;2022-12-20T08:40:39;11.73;;;10.20;;
11771;SDS011;12556;55.748;13.194;2022-12-20T08:43:05;13.33;;;9.90;;
11771;SDS011;12556;55.748;13.194;2022-12-20T08:45:32;14.87;;;9.40;;
11771;SDS011;12556;55.748;13.194;2022-12-20T08:47:59;12.93;;;10.20;;
11771;SDS011;12556;55.748;13.194;2022-12-20T08:50:27;15.50;;;10.83;;
11771;SDS011;12556;55.748;13.194;2022-12-20T08:52:54;14.97;;;10.67;;
11771;SDS011;12556;55.748;13.194;2022-12-20T08:55:20;12.53;;;10.43;;
11771;SDS011;12556;55.748;13.194;2022-12-20T08:57:49;13.60;;;10.80;;
11771;SDS011;12556;55.748;13.194;2022-12-20T09:00:16;16.43;;;12.57;;
11771;SDS011;12556;55.748;13.194;2022-12-20T09:02:43;14.70;;;11.63;;
11771;SDS011;12556;55.748;13.194;2022-12-20T09:05:11;15.30;;;12.23;;
11771;SDS011;12556;55.748;13.194;2022-12-20T09:07:38;17.13;;;12.37;;
11771;SDS011;12556;55.748;13.194;2022-12-20T09:10:05;19.27;;;14.13;;
11771;SDS011;12556;55.748;13.194;2022-12-20T09:12:35;16.90;;;13.17;;
11771;SDS011;12556;55.748;13.194;2022-12-20T09:15:04;16.40;;;12.30;;
11771;SDS011;12556;55.748;13.194;2022-12-20T09:17:32;17.30;;;13.53;;
11771;SDS011;12556;55.748;13.194;2022-12-20T09:19:58;16.17;;;13.03;;
11771;SDS011;12556;55.748;13.194;2022-12-20T09:22:27;17.87;;;13.43;;
11771;SDS011;12556;55.748;13.194;2022-12-20T09:24:54;18.83;;;13.93;;
11771;SDS011;12556;55.748;13.194;2022-12-20T09:27:21;19.87;;;13.30;;
11771;SDS011;12556;55.748;13.194;2022-12-20T09:29:48;16.17;;;12.20;;
11771;SDS011;12556;55.748;13.194;2022-12-20T09:32:16;17.73;;;12.13;;
11771;SDS011;12556;55.748;13.194;2022-12-20T09:34:43;17.03;;;11.73;;
11771;SDS011;12556;55.748;13.194;2022-12-20T09:37:11;18.23;;;11.30;;
11771;SDS011;12556;55.748;13.194;2022-12-20T09:39:38;14.97;;;11.33;;
11771;SDS011;12556;55.748;13.194;2022-12-20T09:42:06;15.87;;;11.30;;
11771;SDS011;12556;55.748;13.194;2022-12-20T09:44:35;16.53;;;11.73;;
11771;SDS011;12556;55.748;13.194;2022-12-20T09:47:06;17.40;;;10.80;;
11771;SDS011;12556;55.748;13.194;2022-12-20T09:49:40;14.30;;;10.43;;
11771;SDS011;12556;55.748;13.194;2022-12-20T09:52:16;12.47;;;10.00;;
11771;SDS011;12556;55.748;13.194;2022-12-20T09:55:01;11.87;;;8.63;;
11771;SDS011;12556;55.748;13.194;2022-12-20T09:57:41;14.17;;;9.93;;
11771;SDS011;12556;55.748;13.194;2022-12-20T10:00:21;10.97;;;8.70;;
11771;SDS011;12556;55.748;13.194;2022-12-20T10:02:48;15.63;;;9.63;;
11771;SDS011;12556;55.748;13.194;2022-12-20T10:05:19;15.53;;;10.83;;
11771;SDS011;12556;55.748;13.194;2022-12-20T10:07:53;13.77;;;10.57;;
11771;SDS011;12556;55.748;13.194;2022-12-20T10:10:35;15.03;;;10.67;;
11771;SDS011;12556;55.748;13.194;2022-12-20T10:13:20;16.30;;;10.80;;
11771;SDS011;12556;55.748;13.194;2022-12-20T10:15:53;14.70;;;10.70;;
11771;SDS011;12556;55.748;13.194;2022-12-20T10:18:33;16.17;;;10.93;;
11771;SDS011;12556;55.748;13.194;2022-12-20T10:21:15;18.83;;;12.43;;
11771;SDS011;12556;55.748;13.194;2022-12-20T10:23:49;21.93;;;12.17;;
11771;SDS011;12556;55.748;13.194;2022-12-20T10:26:25;16.10;;;11.90;;
11771;SDS011;12556;55.748;13.194;2022-12-20T10:28:53;20.33;;;12.10;;
11771;SDS011;12556;55.748;13.194;2022-12-20T10:31:19;15.57;;;12.07;;
11771;SDS011;12556;55.748;13.194;2022-12-20T10:33:47;19.80;;;12.00;;
11771;SDS011;12556;55.748;13.194;2022-12-20T10:36:19;17.10;;;12.23;;
11771;SDS011;12556;55.748;13.194;2022-12-20T10:38:48;15.90;;;11.13;;
11771;SDS011;12556;55.748;13.194;2022-12-20T10:41:16;16.70;;;11.57;;
11771;SDS011;12556;55.748;13.194;2022-12-20T10:43:45;19.90;;;12.17;;
11771;SDS011;12556;55.748;13.194;2022-12-20T10:46:15;18.53;;;11.80;;
11771;SDS011;12556;55.748;13.194;2022-12-20T10:48:42;20.53;;;11.07;;
11771;SDS011;12556;55.748;13.194;2022-12-20T10:51:15;18.57;;;12.70;;
11771;SDS011;12556;55.748;13.194;2022-12-20T10:53:54;19.10;;;12.47;;
11771;SDS011;12556;55.748;13.194;2022-12-20T10:56:23;18.07;;;12.20;;
11771;SDS011;12556;55.748;13.194;2022-12-20T10:58:53;19.73;;;12.93;;
11771;SDS011;12556;55.748;13.194;2022-12-20T11:01:24;21.97;;;13.30;;
11771;SDS011;12556;55.748;13.194;2022-12-20T11:03:55;21.17;;;12.27;;
11771;SDS011;12556;55.748;13.194;2022-12-20T11:06:25;24.50;;;11.97;;
11771;SDS011;12556;55.748;13.194;2022-12-20T11:09:07;20.70;;;13.10;;
11771;SDS011;12556;55.748;13.194;2022-12-20T11:11:56;16.77;;;12.40;;
11771;SDS011;12556;55.748;13.194;2022-12-20T11:14:24;20.73;;;12.50;;
11771;SDS011;12556;55.748;13.194;2022-12-20T11:16:52;22.10;;;13.30;;
11771;SDS011;12556;55.748;13.194;2022-12-20T11:19:29;19.03;;;12.77;;
11771;SDS011;12556;55.748;13.194;2022-12-20T11:22:26;20.40;;;13.10;;
11771;SDS011;12556;55.748;13.194;2022-12-20T11:25:05;22.53;;;13.33;;
11771;SDS011;12556;55.748;13.194;2022-12-20T11:27:47;25.77;;;13.03;;
11771;SDS011;12556;55.748;13.194;2022-12-20T11:30:22;22.70;;;13.63;;
11771;SDS011;12556;55.748;13.194;2022-12-20T11:32:57;22.43;;;13.23;;
11771;SDS011;12556;55.748;13.194;2022-12-20T11:35:46;22.40;;;13.07;;
11771;SDS011;12556;55.748;13.194;2022-12-20T11:38:22;22.00;;;14.40;;
11771;SDS011;12556;55.748;13.194;2022-12-20T11:41:07;17.70;;;11.93;;
11771;SDS011;12556;55.748;13.194;2022-12-20T11:46:33;21.33;;;12.83;;
11771;SDS011;12556;55.748;13.194;2022-12-20T11:49:16;18.40;;;12.67;;
11771;SDS011;12556;55.748;13.194;2022-12-20T11:52:01;18.60;;;12.93;;
11771;SDS011;12556;55.748;13.194;2022-12-20T11:54:31;22.53;;;13.27;;
11771;SDS011;12556;55.748;13.194;2022-12-20T11:57:05;19.77;;;12.53;;
11771;SDS011;12556;55.748;13.194;2022-12-20T11:59:41;19.47;;;12.50;;
11771;SDS011;12556;55.748;13.194;2022-12-20T12:02:14;17.17;;;12.17;;
11771;SDS011;12556;55.748;13.194;2022-12-20T12:04:49;25.17;;;13.13;;
11771;SDS011;12556;55.748;13.194;2022-12-20T12:07:22;24.07;;;13.73;;
11771;SDS011;12556;55.748;13.194;2022-12-20T12:09:54;22.87;;;13.23;;
11771;SDS011;12556;55.748;13.194;2022-12-20T12:12:26;22.67;;;12.43;;
11771;SDS011;12556;55.748;13.194;2022-12-20T12:14:57;23.90;;;14.17;;
11771;SDS011;12556;55.748;13.194;2022-12-20T12:17:28;21.73;;;13.33;;
11771;SDS011;12556;55.748;13.194;2022-12-20T12:22:52;23.23;;;14.30;;
11771;SDS011;12556;55.748;13.194;2022-12-20T12:25:24;22.00;;;13.90;;
11771;SDS011;12556;55.748;13.194;2022-12-20T12:27:52;24.50;;;13.47;;
11771;SDS011;12556;55.748;13.194;2022-12-20T12:30:19;20.93;;;13.50;;
11771;SDS011;12556;55.748;13.194;2022-12-20T12:32:48;21.87;;;14.87;;
11771;SDS011;12556;55.748;13.194;2022-12-20T12:35:33;22.80;;;15.73;;
11771;SDS011;12556;55.748;13.194;2022-12-20T12:38:15;27.80;;;16.10;;
11771;SDS011;12556;55.748;13.194;2022-12-20T12:41:08;18.37;;;13.53;;
11771;SDS011;12556;55.748;13.194;2022-12-20T12:43:59;21.07;;;14.90;;
11771;SDS011;12556;55.748;13.194;2022-12-20T12:46:56;18.93;;;13.53;;
11771;SDS011;12556;55.748;13.194;2022-12-20T12:49:27;23.77;;;14.07;;
11771;SDS011;12556;55.748;13.194;2022-12-20T12:51:57;25.83;;;14.33;;
11771;SDS011;12556;55.748;13.194;2022-12-20T12:54:26;22.77;;;13.77;;
11771;SDS011;12556;55.748;13.194;2022-12-20T12:56:58;21.60;;;14.23;;
11771;SDS011;12556;55.748;13.194;2022-12-20T13:02:31;20.90;;;13.37;;
11771;SDS011;12556;55.748;13.194;2022-12-20T13:05:30;21.83;;;14.40;;
11771;SDS011;12556;55.748;13.194;2022-12-20T13:07:59;21.63;;;13.50;;
11771;SDS011;12556;55.748;13.194;2022-12-20T13:13:23;21.17;;;14.47;;
11771;SDS011;12556;55.748;13.194;2022-12-20T13:18:59;23.17;;;14.03;;
11771;SDS011;12556;55.748;13.194;2022-12-20T13:21:39;21.27;;;13.30;;
11771;SDS011;12556;55.748;13.194;2022-12-20T13:27:30;22.70;;;13.40;;
11771;SDS011;12556;55.748;13.194;2022-12-20T13:35:56;23.37;;;14.27;;
11771;SDS011;12556;55.748;13.194;2022-12-20T13:41:24;24.07;;;14.13;;
11771;SDS011;12556;55.748;13.194;2022-12-20T13:43:56;21.40;;;14.83;;
11771;SDS011;12556;55.748;13.194;2022-12-20T13:46:26;25.93;;;15.47;;
11771;SDS011;12556;55.748;13.194;2022-12-20T13:49:04;22.77;;;15.13;;
11771;SDS011;12556;55.748;13.194;2022-12-20T13:51:37;25.43;;;14.70;;
11771;SDS011;12556;55.748;13.194;2022-12-20T13:54:04;25.00;;;14.73;;
11771;SDS011;12556;55.748;13.194;2022-12-20T13:56:35;22.67;;;13.40;;
11771;SDS011;12556;55.748;13.194;2022-12-20T13:59:11;18.93;;;13.30;;
11771;SDS011;12556;55.748;13.194;2022-12-20T14:01:45;21.20;;;13.83;;
11771;SDS011;12556;55.748;13.194;2022-12-20T14:04:14;16.77;;;12.60;;
11771;SDS011;12556;55.748;13.194;2022-12-20T14:06:44;21.57;;;13.43;;
11771;SDS011;12556;55.748;13.194;2022-12-20T14:09:26;18.20;;;12.10;;
11771;SDS011;12556;55.748;13.194;2022-12-20T14:12:01;16.40;;;11.50;;
11771;SDS011;12556;55.748;13.194;2022-12-20T14:14:29;19.40;;;12.07;;
11771;SDS011;12556;55.748;13.194;2022-12-20T14:19:41;18.70;;;12.20;;
11771;SDS011;12556;55.748;13.194;2022-12-20T14:22:11;24.80;;;12.73;;
11771;SDS011;12556;55.748;13.194;2022-12-20T14:24:38;18.73;;;11.77;;
11771;SDS011;12556;55.748;13.194;2022-12-20T14:27:08;21.63;;;12.87;;
11771;SDS011;12556;55.748;13.194;2022-12-20T14:29:39;19.97;;;11.77;;
11771;SDS011;12556;55.748;13.194;2022-12-20T14:32:15;21.53;;;12.60;;
11771;SDS011;12556;55.748;13.194;2022-12-20T14:34:43;19.93;;;12.10;;
11771;SDS011;12556;55.748;13.194;2022-12-20T14:37:25;17.13;;;11.90;;
11771;SDS011;12556;55.748;13.194;2022-12-20T14:39:55;19.00;;;12.77;;
11771;SDS011;12556;55.748;13.194;2022-12-20T14:42:26;20.10;;;13.37;;
11771;SDS011;12556;55.748;13.194;2022-12-20T14:45:02;16.73;;;11.73;;
11771;SDS011;12556;55.748;13.194;2022-12-20T14:47:31;20.67;;;12.93;;
11771;SDS011;12556;55.748;13.194;2022-12-20T14:49:59;19.97;;;12.73;;
11771;SDS011;12556;55.748;13.194;2022-12-20T14:52:29;17.97;;;12.17;;
11771;SDS011;12556;55.748;13.194;2022-12-20T14:55:00;20.03;;;12.97;;
11771;SDS011;12556;55.748;13.194;2022-12-20T14:57:36;18.30;;;12.53;;
11771;SDS011;12556;55.748;13.194;2022-12-20T15:00:09;20.40;;;12.87;;